Time;durP1;ratioP1;P1;durP2;ratioP2;P2;SDS_P1;SDS_P2;PMS_P1;PMS_P2;Temp;Humidity;BMP_temperature;BMP_pressure;BME280_temperature;BME280_humidity;BME280_pressure;Samples;Min_cycle;Max_cycle;Signal;HPM_P1;HPM_P2
2022/09/20 00:03:47;;;;;;;;;;;20.10;42.90;;;;;;8333778;28;19939;-43
2022/09/20 00:07:47;;;;;;;;;;;20.10;43.40;;;;;;8333522;28;20394;-43
2022/09/20 00:11:48;;;;;;;;;;;20.10;43.00;;;;;;8332874;28;19917;-44
2022/09/20 00:15:48;;;;;;;;;;;20.10;43.00;;;;;;8333050;28;20357;-43
2022/09/20 00:19:49;;;;;;;;;;;20.00;42.90;;;;;;8332970;28;19925;-43
2022/09/20 00:23:50;;;;;;;;;;;20.00;42.90;;;;;;8332699;28;20424;-42
2022/09/20 00:27:50;;;;;;;;;;;20.00;42.90;;;;;;8332739;28;19952;-42
2022/09/20 00:31:51;;;;;;;;;;;20.00;43.00;;;;;;8332742;28;20008;-42
2022/09/20 00:35:51;;;;;;;;;;;20.00;42.90;;;;;;8331981;28;19970;-43
2022/09/20 00:39:52;;;;;;;;;;;20.00;43.00;;;;;;8332285;28;19920;-43
2022/09/20 00:43:52;;;;;;;;;;;20.00;43.00;;;;;;8332530;28;19917;-42
2022/09/20 00:48:00;;;;;;;;;;;20.00;42.90;;;;;;8331627;28;19974;-43
2022/09/20 00:52:01;;;;;;;;;;;20.00;43.00;;;;;;8332009;28;19948;-42
2022/09/20 00:56:08;;;;;;;;;;;20.00;43.00;;;;;;8331586;28;20003;-43
2022/09/20 01:00:10;;;;;;;;;;;19.90;43.00;;;;;;8330552;28;19929;-42
2022/09/20 01:04:13;;;;;;;;;;;19.90;42.90;;;;;;8331270;28;19940;-43
2022/09/20 01:08:13;;;;;;;;;;;19.90;42.90;;;;;;8331419;28;19925;-43
2022/09/20 01:12:16;;;;;;;;;;;19.90;42.90;;;;;;8330789;28;20290;-43
2022/09/20 01:16:17;;;;;;;;;;;19.90;43.00;;;;;;8331553;28;19928;-43
2022/09/20 01:20:31;;;;;;;;;;;19.90;42.90;;;;;;8331127;28;20293;-43
2022/09/20 01:24:43;;;;;;;;;;;19.90;43.00;;;;;;8331319;28;19917;-43
2022/09/20 01:28:46;;;;;;;;;;;19.90;43.00;;;;;;8331242;28;19968;-44
2022/09/20 01:33:05;;;;;;;;;;;19.90;43.00;;;;;;8330498;28;19917;-44
2022/09/20 01:37:13;;;;;;;;;;;19.80;43.00;;;;;;8330730;28;20286;-44
2022/09/20 01:41:17;;;;;;;;;;;19.80;42.90;;;;;;8330733;28;19920;-43
2022/09/20 01:45:27;;;;;;;;;;;19.80;42.90;;;;;;8330095;28;19974;-43
2022/09/20 01:49:40;;;;;;;;;;;19.80;42.90;;;;;;8330629;28;19925;-43
2022/09/20 01:53:58;;;;;;;;;;;19.80;43.00;;;;;;8330236;28;19922;-43
2022/09/20 01:58:23;;;;;;;;;;;19.80;42.90;;;;;;8330580;28;20362;-43
2022/09/20 02:02:23;;;;;;;;;;;19.80;42.90;;;;;;8329730;28;19913;-43
2022/09/20 02:06:39;;;;;;;;;;;19.80;42.90;;;;;;8330430;28;20372;-43
2022/09/20 02:10:59;;;;;;;;;;;19.80;42.90;;;;;;8334973;28;19987;-43
2022/09/20 02:15:05;;;;;;;;;;;19.80;42.90;;;;;;8336350;28;19990;-43
2022/09/20 02:19:24;;;;;;;;;;;19.80;42.90;;;;;;8336869;28;19970;-42
2022/09/20 02:23:44;;;;;;;;;;;19.70;42.90;;;;;;8336148;28;19917;-43
2022/09/20 02:27:54;;;;;;;;;;;19.80;42.90;;;;;;8336666;28;19963;-43
2022/09/20 02:32:10;;;;;;;;;;;19.70;42.90;;;;;;8336260;28;19917;-42
2022/09/20 02:36:24;;;;;;;;;;;19.70;42.90;;;;;;8334490;28;19921;-43
2022/09/20 02:40:36;;;;;;;;;;;19.70;42.90;;;;;;8336247;28;20290;-42
2022/09/20 02:44:46;;;;;;;;;;;19.70;42.90;;;;;;8335678;28;19917;-43
2022/09/20 02:48:57;;;;;;;;;;;19.70;42.90;;;;;;8335693;28;19931;-42
2022/09/20 02:52:57;;;;;;;;;;;19.70;42.80;;;;;;8335836;28;20298;-42
2022/09/20 02:57:05;;;;;;;;;;;19.60;42.80;;;;;;8335251;28;20003;-42
2022/09/20 03:01:31;;;;;;;;;;;19.60;42.80;;;;;;8335704;28;19917;-43
2022/09/20 03:05:41;;;;;;;;;;;19.60;42.90;;;;;;8334951;28;20000;-42
2022/09/20 03:10:00;;;;;;;;;;;19.60;42.80;;;;;;8335386;28;19971;-42
2022/09/20 03:14:17;;;;;;;;;;;19.60;42.80;;;;;;8335083;28;20301;-42
2022/09/20 03:18:29;;;;;;;;;;;19.60;42.80;;;;;;8334512;28;19921;-42
2022/09/20 03:22:38;;;;;;;;;;;19.60;42.80;;;;;;8333610;28;19945;-42
2022/09/20 03:26:57;;;;;;;;;;;19.60;42.90;;;;;;8334190;28;20445;-42
2022/09/20 03:31:12;;;;;;;;;;;19.60;42.90;;;;;;8334376;28;19932;-42
2022/09/20 03:35:20;;;;;;;;;;;19.60;42.90;;;;;;8334469;28;19913;-42
2022/09/20 03:39:20;;;;;;;;;;;19.60;42.90;;;;;;8333806;28;19948;-42
2022/09/20 03:43:40;;;;;;;;;;;19.60;42.90;;;;;;8334301;28;20328;-43
2022/09/20 03:47:55;;;;;;;;;;;19.50;42.80;;;;;;8333498;28;19949;-42
2022/09/20 03:52:12;;;;;;;;;;;19.50;42.80;;;;;;8334265;28;19970;-42
2022/09/20 03:56:17;;;;;;;;;;;19.60;42.90;;;;;;8333941;28;19940;-42
2022/09/20 04:00:43;;;;;;;;;;;19.60;42.80;;;;;;8333541;28;20059;-42
2022/09/20 04:04:46;;;;;;;;;;;19.60;42.80;;;;;;8333765;28;19917;-43
2022/09/20 04:08:47;;;;;;;;;;;19.60;42.90;;;;;;8318623;28;20412;-42
2022/09/20 04:13:06;;;;;;;;;;;19.50;42.70;;;;;;8317720;28;19917;-42
2022/09/20 04:17:19;;;;;;;;;;;19.50;42.70;;;;;;8333197;28;19971;-43
2022/09/20 04:21:38;;;;;;;;;;;19.50;42.70;;;;;;8332480;28;19921;-43
2022/09/20 04:25:42;;;;;;;;;;;19.50;42.80;;;;;;8333207;28;19917;-42
2022/09/20 04:29:46;;;;;;;;;;;19.50;42.70;;;;;;8332201;28;19925;-43
2022/09/20 04:33:49;;;;;;;;;;;19.50;42.70;;;;;;8332565;28;19917;-43
2022/09/20 04:37:50;;;;;;;;;;;19.50;42.70;;;;;;8332667;28;19932;-42
2022/09/20 04:42:07;;;;;;;;;;;19.50;42.80;;;;;;8331858;28;19945;-43
2022/09/20 04:46:17;;;;;;;;;;;19.50;42.80;;;;;;8332479;28;20374;-42
2022/09/20 04:50:29;;;;;;;;;;;19.50;42.80;;;;;;8332331;28;20012;-42
2022/09/20 04:54:36;;;;;;;;;;;19.40;42.70;;;;;;8331681;28;19921;-42
2022/09/20 04:58:36;;;;;;;;;;;19.40;42.70;;;;;;8331770;28;19922;-42
2022/09/20 05:02:56;;;;;;;;;;;19.50;42.80;;;;;;8331253;28;20430;-42
2022/09/20 05:07:03;;;;;;;;;;;19.50;42.70;;;;;;8331892;28;19921;-43
2022/09/20 05:11:24;;;;;;;;;;;19.50;43.30;;;;;;8331625;28;19921;-42
2022/09/20 05:15:36;;;;;;;;;;;19.40;42.70;;;;;;8331269;28;19964;-42
2022/09/20 05:19:51;;;;;;;;;;;19.40;42.70;;;;;;8331151;28;20370;-42
2022/09/20 05:24:03;;;;;;;;;;;19.40;42.70;;;;;;8319716;28;19918;-44
2022/09/20 05:28:04;;;;;;;;;;;19.40;42.60;;;;;;8330944;28;19925;-43
2022/09/20 05:32:13;;;;;;;;;;;19.40;42.70;;;;;;8330957;28;19917;-43
2022/09/20 05:36:28;;;;;;;;;;;19.40;42.70;;;;;;8330668;28;20320;-43
2022/09/20 05:40:34;;;;;;;;;;;19.40;42.70;;;;;;8331004;28;19918;-43
2022/09/20 05:45:04;;;;;;;;;;;19.40;42.70;;;;;;8329624;28;20362;-43
2022/09/20 05:49:16;;;;;;;;;;;19.40;42.80;;;;;;8278185;28;19930;-44
2022/09/20 05:53:36;;;;;;;;;;;19.30;42.70;;;;;;8313114;28;20370;-43
2022/09/20 05:57:55;;;;;;;;;;;19.30;42.60;;;;;;8329799;28;20282;-43
2022/09/20 06:02:12;;;;;;;;;;;19.30;42.70;;;;;;8330131;28;19967;-43
2022/09/20 06:06:31;;;;;;;;;;;19.30;42.70;;;;;;8330024;28;19924;-43
2022/09/20 06:10:50;;;;;;;;;;;19.30;42.60;;;;;;8330139;28;19978;-43
2022/09/20 06:15:00;;;;;;;;;;;19.30;42.70;;;;;;8329614;28;20336;-43
2022/09/20 06:19:09;;;;;;;;;;;19.40;42.60;;;;;;8330314;28;20366;-44
2022/09/20 06:23:10;;;;;;;;;;;19.60;42.20;;;;;;8330003;28;19924;-43
2022/09/20 06:27:23;;;;;;;;;;;19.80;41.70;;;;;;8329614;28;19921;-43
2022/09/20 06:31:24;;;;;;;;;;;19.90;41.30;;;;;;8330155;28;20008;-43
2022/09/20 06:35:32;;;;;;;;;;;19.90;41.30;;;;;;8329316;28;19964;-43
2022/09/20 06:43:59;;;;;;;;;;;19.80;41.60;;;;;;8333572;28;20297;-43
2022/09/20 06:48:01;;;;;;;;;;;19.70;41.80;;;;;;8329079;28;19944;-43
2022/09/20 06:52:05;;;;;;;;;;;19.60;42.40;;;;;;8329724;28;19913;-43
2022/09/20 06:56:14;;;;;;;;;;;19.50;42.00;;;;;;8333152;28;19913;-43
2022/09/20 07:00:15;;;;;;;;;;;19.50;42.10;;;;;;8335038;28;19996;-43
2022/09/20 07:04:15;;;;;;;;;;;19.50;42.20;;;;;;8335181;28;19928;-43
2022/09/20 07:08:16;;;;;;;;;;;19.50;42.30;;;;;;8335249;28;19951;-43
2022/09/20 07:12:16;;;;;;;;;;;19.40;42.30;;;;;;8334630;28;20026;-43
2022/09/20 07:16:17;;;;;;;;;;;19.40;42.40;;;;;;8335484;28;19955;-43
2022/09/20 07:20:19;;;;;;;;;;;19.40;42.30;;;;;;8335017;28;19921;-44
2022/09/20 07:24:19;;;;;;;;;;;19.40;42.40;;;;;;8334387;28;20006;-43
2022/09/20 07:28:20;;;;;;;;;;;19.40;42.30;;;;;;8334544;28;19934;-43
2022/09/20 07:32:20;;;;;;;;;;;19.40;42.40;;;;;;8334602;28;19913;-43
2022/09/20 07:36:21;;;;;;;;;;;19.40;42.40;;;;;;8334262;28;19921;-43
2022/09/20 07:40:21;;;;;;;;;;;19.40;42.30;;;;;;8334302;28;19917;-43
2022/09/20 07:44:26;;;;;;;;;;;19.40;42.40;;;;;;8333932;28;19940;-43
2022/09/20 07:48:29;;;;;;;;;;;19.40;42.40;;;;;;8301103;28;19961;-43
2022/09/20 07:52:30;;;;;;;;;;;19.40;42.50;;;;;;8300984;28;20264;-43
2022/09/20 07:56:30;;;;;;;;;;;19.40;42.50;;;;;;8300613;28;19914;-43
2022/09/20 08:00:30;;;;;;;;;;;19.40;42.50;;;;;;8300932;28;19922;-43
2022/09/20 08:04:31;;;;;;;;;;;19.40;42.50;;;;;;8300702;28;20424;-43
2022/09/20 08:08:33;;;;;;;;;;;19.40;42.60;;;;;;8299496;28;19925;-44
2022/09/20 08:12:34;;;;;;;;;;;19.40;42.60;;;;;;8301080;28;19945;-43
2022/09/20 08:16:38;;;;;;;;;;;19.40;42.60;;;;;;8302071;28;20290;-43
2022/09/20 08:20:39;;;;;;;;;;;19.40;42.60;;;;;;8300451;28;19922;-43
2022/09/20 08:24:39;;;;;;;;;;;19.40;42.60;;;;;;8300440;28;19952;-43
2022/09/20 08:28:40;;;;;;;;;;;19.40;42.50;;;;;;8300456;28;19925;-45
2022/09/20 08:32:41;;;;;;;;;;;19.40;42.60;;;;;;8301582;28;19920;-43
2022/09/20 08:36:45;;;;;;;;;;;19.50;42.60;;;;;;8301974;28;19921;-43
2022/09/20 08:40:46;;;;;;;;;;;19.50;42.60;;;;;;8301770;28;19917;-44
2022/09/20 08:44:49;;;;;;;;;;;19.50;42.60;;;;;;8300086;28;19924;-43
2022/09/20 08:48:51;;;;;;;;;;;19.50;42.60;;;;;;8300206;28;19972;-44
2022/09/20 08:52:56;;;;;;;;;;;19.50;42.50;;;;;;8301683;28;20389;-43
2022/09/20 08:57:03;;;;;;;;;;;19.50;42.50;;;;;;8284777;28;19922;-42
2022/09/20 09:01:05;;;;;;;;;;;19.50;42.50;;;;;;8296119;28;19917;-44
2022/09/20 09:05:15;;;;;;;;;;;19.50;42.60;;;;;;8292528;28;19967;-42
2022/09/20 09:09:22;;;;;;;;;;;19.60;42.60;;;;;;8264220;28;20437;-42
2022/09/20 09:13:25;;;;;;;;;;;19.60;42.60;;;;;;8264637;28;20375;-42
2022/09/20 09:17:27;;;;;;;;;;;19.60;42.60;;;;;;8277258;28;20352;-42
2022/09/20 09:21:29;;;;;;;;;;;19.60;42.50;;;;;;8296774;28;19918;-43
2022/09/20 09:25:33;;;;;;;;;;;19.60;42.50;;;;;;8299016;28;20174;-44
2022/09/20 09:29:33;;;;;;;;;;;19.60;42.50;;;;;;8298101;28;19932;-44
2022/09/20 09:33:34;;;;;;;;;;;19.60;42.50;;;;;;8298611;28;19913;-44
2022/09/20 09:37:34;;;;;;;;;;;19.60;42.50;;;;;;8298957;28;20067;-44
2022/09/20 09:41:35;;;;;;;;;;;19.60;42.50;;;;;;8297804;28;19925;-44
2022/09/20 09:45:39;;;;;;;;;;;19.70;42.50;;;;;;8298557;28;19918;-44
2022/09/20 09:49:54;;;;;;;;;;;19.60;42.40;;;;;;8297964;28;19925;-44
2022/09/20 09:53:55;;;;;;;;;;;19.70;42.50;;;;;;8297835;28;20383;-44
2022/09/20 09:58:00;;;;;;;;;;;19.70;42.60;;;;;;8298164;28;19914;-43
2022/09/20 10:02:17;;;;;;;;;;;19.70;42.40;;;;;;8297629;28;19918;-43
2022/09/20 10:06:42;;;;;;;;;;;19.70;42.50;;;;;;8297016;28;19948;-44
2022/09/20 10:10:51;;;;;;;;;;;19.70;42.40;;;;;;8288999;28;19926;-43
2022/09/20 10:15:11;;;;;;;;;;;19.70;42.40;;;;;;8264414;28;19933;-43
2022/09/20 10:19:18;;;;;;;;;;;19.70;42.40;;;;;;8265068;28;20333;-42
2022/09/20 10:23:28;;;;;;;;;;;19.80;42.40;;;;;;8264746;28;19918;-43
2022/09/20 10:27:41;;;;;;;;;;;19.80;42.40;;;;;;8297166;28;19924;-43
2022/09/20 10:31:58;;;;;;;;;;;19.80;42.40;;;;;;8329843;28;19932;-43
2022/09/20 10:36:37;;;;;;;;;;;19.80;42.30;;;;;;8335928;28;20364;-45
2022/09/20 10:45:17;;;;;;;;;;;19.80;42.40;;;;;;8292735;28;19924;-43
2022/09/20 10:49:33;;;;;;;;;;;19.80;42.40;;;;;;8335989;28;19974;-42
2022/09/20 10:53:52;;;;;;;;;;;19.80;42.40;;;;;;8335356;28;19944;-43
2022/09/20 10:58:12;;;;;;;;;;;19.80;42.40;;;;;;8336084;28;19952;-42
2022/09/20 11:02:19;;;;;;;;;;;19.80;42.50;;;;;;8335551;28;19917;-43
2022/09/20 11:06:25;;;;;;;;;;;19.80;42.50;;;;;;8335084;28;19921;-42
2022/09/20 11:10:34;;;;;;;;;;;19.80;42.50;;;;;;8335608;28;20569;-42
2022/09/20 11:14:41;;;;;;;;;;;19.80;42.50;;;;;;8334837;28;19949;-42
2022/09/20 11:18:44;;;;;;;;;;;19.80;42.50;;;;;;8335000;28;20019;-42
2022/09/20 11:22:59;;;;;;;;;;;19.80;42.50;;;;;;8335310;28;19917;-43
2022/09/20 11:27:14;;;;;;;;;;;19.80;42.50;;;;;;8334472;28;20394;-43
2022/09/20 11:31:24;;;;;;;;;;;19.90;42.50;;;;;;8334649;28;19932;-43
2022/09/20 11:35:59;;;;;;;;;;;19.90;42.50;;;;;;8334143;28;19925;-45
2022/09/20 11:40:03;;;;;;;;;;;19.90;42.50;;;;;;8251345;28;19921;-43
2022/09/20 11:44:07;;;;;;;;;;;19.90;42.40;;;;;;8303025;28;20229;-45
2022/09/20 11:48:11;;;;;;;;;;;20.00;42.40;;;;;;8333869;28;20429;-43
2022/09/20 11:52:30;;;;;;;;;;;20.00;42.40;;;;;;8333999;28;20394;-45
2022/09/20 11:56:32;;;;;;;;;;;20.00;42.30;;;;;;8333526;28;19924;-44
2022/09/20 12:00:34;;;;;;;;;;;20.10;42.40;;;;;;8333784;28;19921;-45
2022/09/20 12:04:35;;;;;;;;;;;20.10;42.30;;;;;;8333595;28;20001;-43
2022/09/20 12:08:37;;;;;;;;;;;20.10;42.30;;;;;;8333269;28;20366;-43
2022/09/20 12:12:44;;;;;;;;;;;20.10;42.30;;;;;;8333323;28;19917;-43
2022/09/20 12:16:45;;;;;;;;;;;20.10;42.40;;;;;;8333610;28;19917;-46
2022/09/20 12:20:56;;;;;;;;;;;20.00;42.30;;;;;;8331269;28;19918;-45
2022/09/20 12:25:15;;;;;;;;;;;20.00;42.30;;;;;;8333257;28;20505;-44
2022/09/20 12:29:21;;;;;;;;;;;20.00;42.30;;;;;;8332945;28;19927;-43
2022/09/20 12:33:42;;;;;;;;;;;20.00;42.30;;;;;;8332392;28;19914;-46
2022/09/20 12:37:42;;;;;;;;;;;20.00;42.40;;;;;;8332521;28;20379;-45
2022/09/20 12:41:49;;;;;;;;;;;20.00;42.40;;;;;;8332070;28;20039;-46
2022/09/20 12:45:53;;;;;;;;;;;20.00;42.30;;;;;;8332260;28;19917;-45
2022/09/20 12:54:15;;;;;;;;;;;20.00;42.30;;;;;;8331814;28;19971;-43
2022/09/20 12:58:16;;;;;;;;;;;20.00;42.40;;;;;;8331739;28;19996;-44
2022/09/20 13:02:35;;;;;;;;;;;20.00;42.30;;;;;;8330251;28;20357;-45
2022/09/20 13:06:35;;;;;;;;;;;20.00;42.30;;;;;;8331180;28;20012;-44
2022/09/20 13:10:39;;;;;;;;;;;20.00;42.40;;;;;;8331482;28;19925;-44
2022/09/20 13:14:40;;;;;;;;;;;20.10;42.40;;;;;;8330898;28;19917;-44
2022/09/20 13:18:40;;;;;;;;;;;20.00;42.40;;;;;;8331637;28;19939;-44
2022/09/20 13:22:44;;;;;;;;;;;20.00;42.30;;;;;;8330931;28;19918;-45
2022/09/20 13:26:46;;;;;;;;;;;20.10;42.30;;;;;;8330729;28;19917;-46
2022/09/20 13:30:46;;;;;;;;;;;20.00;42.30;;;;;;8331030;28;19968;-45
2022/09/20 13:35:03;;;;;;;;;;;20.00;42.30;;;;;;8330574;28;19917;-44
2022/09/20 13:39:05;;;;;;;;;;;20.00;42.30;;;;;;8330542;28;19921;-43
2022/09/20 13:43:14;;;;;;;;;;;20.00;42.40;;;;;;8330426;28;19939;-43
2022/09/20 13:47:22;;;;;;;;;;;20.00;42.30;;;;;;8330307;28;19913;-43
2022/09/20 13:51:24;;;;;;;;;;;20.00;42.30;;;;;;8329560;28;19955;-45
2022/09/20 13:55:30;;;;;;;;;;;20.00;42.30;;;;;;8330168;28;20294;-43
2022/09/20 13:59:38;;;;;;;;;;;20.00;42.40;;;;;;8330149;28;19991;-43
2022/09/20 14:03:43;;;;;;;;;;;20.00;42.40;;;;;;8330159;28;19953;-43
2022/09/20 14:07:45;;;;;;;;;;;20.00;42.30;;;;;;8330022;28;20008;-44
2022/09/20 14:11:45;;;;;;;;;;;20.00;42.40;;;;;;8329842;28;20379;-42
2022/09/20 14:15:46;;;;;;;;;;;20.00;42.40;;;;;;8330105;28;19956;-44
2022/09/20 14:19:48;;;;;;;;;;;20.00;42.40;;;;;;8330386;28;20045;-43
2022/09/20 14:23:53;;;;;;;;;;;20.00;42.40;;;;;;8329872;28;20298;-43
2022/09/20 14:28:04;;;;;;;;;;;20.00;42.40;;;;;;8329947;28;19971;-43
2022/09/20 14:32:09;;;;;;;;;;;19.90;42.40;;;;;;8329933;28;19925;-44
2022/09/20 14:36:14;;;;;;;;;;;19.90;42.40;;;;;;8329272;28;20155;-43
2022/09/20 14:40:18;;;;;;;;;;;20.00;42.50;;;;;;8328152;28;20294;-43
2022/09/20 14:44:24;;;;;;;;;;;20.00;42.50;;;;;;8329593;28;19921;-43
2022/09/20 14:48:25;;;;;;;;;;;19.90;42.50;;;;;;8329301;28;20329;-43
2022/09/20 14:52:28;;;;;;;;;;;19.90;42.50;;;;;;8329731;28;19971;-44
2022/09/20 14:56:32;;;;;;;;;;;19.90;42.50;;;;;;8329113;28;19913;-42
2022/09/20 15:00:46;;;;;;;;;;;20.00;42.60;;;;;;8329288;28;19918;-43
2022/09/20 15:04:59;;;;;;;;;;;19.90;42.50;;;;;;8329807;28;19918;-44
2022/09/20 15:08:59;;;;;;;;;;;20.00;42.60;;;;;;8328807;28;19925;-43
2022/09/20 15:12:59;;;;;;;;;;;19.90;42.60;;;;;;8329129;28;19921;-44
2022/09/20 15:17:00;;;;;;;;;;;19.90;42.60;;;;;;8330805;28;19939;-44
2022/09/20 15:21:00;;;;;;;;;;;19.90;42.60;;;;;;8334413;28;20061;-44
2022/09/20 15:25:01;;;;;;;;;;;20.00;42.60;;;;;;8334961;28;19913;-44
2022/09/20 15:29:02;;;;;;;;;;;19.90;42.50;;;;;;8334679;28;19931;-44
2022/09/20 15:33:02;;;;;;;;;;;19.90;42.50;;;;;;8334103;28;19917;-43
2022/09/20 15:37:03;;;;;;;;;;;19.90;42.50;;;;;;8334411;28;20360;-44
2022/09/20 15:41:04;;;;;;;;;;;19.90;42.50;;;;;;8334291;28;20007;-43
2022/09/20 15:45:09;;;;;;;;;;;19.90;42.50;;;;;;8333884;28;19925;-44
2022/09/20 15:49:10;;;;;;;;;;;20.00;42.60;;;;;;8334095;28;19972;-47
2022/09/20 15:53:11;;;;;;;;;;;19.90;42.60;;;;;;8332694;28;19952;-44
2022/09/20 15:57:11;;;;;;;;;;;19.90;42.60;;;;;;8332881;28;19921;-44
2022/09/20 16:01:14;;;;;;;;;;;19.90;42.60;;;;;;8333585;28;19913;-43
2022/09/20 16:05:15;;;;;;;;;;;19.90;42.60;;;;;;8333567;28;19917;-43
2022/09/20 16:09:17;;;;;;;;;;;19.90;42.60;;;;;;8328072;28;20286;-44
2022/09/20 16:13:17;;;;;;;;;;;19.90;42.60;;;;;;8323172;28;19917;-44
2022/09/20 16:19:15;;;;;;;;;;;19.90;42.60;;;;;;8332889;28;20367;-44
2022/09/20 16:21:39;;;;;;;;;;;19.90;42.70;;;;;;8332598;28;19975;-44
2022/09/20 16:25:39;;;;;;;;;;;20.00;42.70;;;;;;8333073;28;20374;-46
2022/09/20 16:29:40;;;;;;;;;;;19.90;42.60;;;;;;8332079;28;20003;-45
2022/09/20 16:33:41;;;;;;;;;;;19.90;42.70;;;;;;8332950;28;19928;-44
2022/09/20 16:37:42;;;;;;;;;;;19.90;42.70;;;;;;8332460;28;19921;-43
2022/09/20 16:41:44;;;;;;;;;;;19.90;42.70;;;;;;8332033;28;19917;-42
2022/09/20 16:45:45;;;;;;;;;;;19.90;42.80;;;;;;8332815;28;19920;-44
2022/09/20 16:49:47;;;;;;;;;;;19.90;42.80;;;;;;8332226;28;19925;-43
2022/09/20 16:53:47;;;;;;;;;;;19.90;42.80;;;;;;8331642;28;19921;-44
2022/09/20 16:57:48;;;;;;;;;;;19.90;42.70;;;;;;8331883;28;20386;-45
2022/09/20 17:01:49;;;;;;;;;;;19.90;42.70;;;;;;8332064;28;19917;-44
2022/09/20 17:05:50;;;;;;;;;;;19.90;42.70;;;;;;8331403;28;19920;-45
2022/09/20 17:09:50;;;;;;;;;;;19.90;42.80;;;;;;8331466;28;19975;-43
2022/09/20 17:13:52;;;;;;;;;;;19.90;42.70;;;;;;8331511;28;19917;-44
2022/09/20 17:17:52;;;;;;;;;;;19.90;42.70;;;;;;8330813;28;19917;-43
2022/09/20 17:21:53;;;;;;;;;;;19.90;43.20;;;;;;8331145;28;20374;-44
2022/09/20 17:26:01;;;;;;;;;;;19.90;42.70;;;;;;8331282;28;19913;-44
2022/09/20 17:30:02;;;;;;;;;;;19.90;42.70;;;;;;8330339;28;19944;-44
2022/09/20 17:34:06;;;;;;;;;;;19.90;42.70;;;;;;8331044;28;19917;-43
2022/09/20 17:38:07;;;;;;;;;;;19.90;42.70;;;;;;8330793;28;19921;-43
2022/09/20 17:42:07;;;;;;;;;;;19.90;42.70;;;;;;8329614;28;19923;-44
2022/09/20 17:46:15;;;;;;;;;;;19.90;42.70;;;;;;8331030;28;19914;-44
2022/09/20 17:50:15;;;;;;;;;;;19.90;42.70;;;;;;8331225;28;19933;-43
2022/09/20 17:54:16;;;;;;;;;;;19.90;42.70;;;;;;8330091;28;20008;-44
2022/09/20 17:58:17;;;;;;;;;;;19.80;42.70;;;;;;8330431;28;19921;-43
2022/09/20 18:02:17;;;;;;;;;;;19.80;42.70;;;;;;8330252;28;20275;-43
2022/09/20 18:06:19;;;;;;;;;;;19.90;42.70;;;;;;8330241;28;19914;-43
2022/09/20 18:10:19;;;;;;;;;;;19.80;42.70;;;;;;8330562;28;20451;-43
2022/09/20 18:14:22;;;;;;;;;;;19.80;42.70;;;;;;8330144;28;19924;-44
2022/09/20 18:18:22;;;;;;;;;;;19.80;43.20;;;;;;8329617;28;19918;-44
2022/09/20 18:22:22;;;;;;;;;;;19.80;42.70;;;;;;8330322;28;19924;-44
2022/09/20 18:26:24;;;;;;;;;;;19.80;42.70;;;;;;8330281;28;19920;-44
2022/09/20 18:30:25;;;;;;;;;;;19.80;42.70;;;;;;8329496;28;19975;-44
2022/09/20 18:34:30;;;;;;;;;;;19.80;42.70;;;;;;8329796;28;19918;-43
2022/09/20 18:38:31;;;;;;;;;;;19.70;42.70;;;;;;8329269;28;19963;-44
2022/09/20 18:42:32;;;;;;;;;;;19.80;42.70;;;;;;8329651;28;19998;-44
2022/09/20 18:46:36;;;;;;;;;;;19.80;42.70;;;;;;8330130;28;20436;-43
2022/09/20 18:50:37;;;;;;;;;;;19.80;42.70;;;;;;8330521;28;19925;-43
2022/09/20 18:54:37;;;;;;;;;;;19.80;42.80;;;;;;8335996;28;19936;-44
2022/09/20 18:58:38;;;;;;;;;;;19.80;42.70;;;;;;8335747;28;20451;-43
2022/09/20 19:02:42;;;;;;;;;;;19.80;42.70;;;;;;8330208;28;19925;-43
2022/09/20 19:06:47;;;;;;;;;;;19.70;42.70;;;;;;8335544;28;19913;-43
2022/09/20 19:10:52;;;;;;;;;;;19.70;42.70;;;;;;8335647;28;19974;-45
2022/09/20 19:15:11;;;;;;;;;;;19.80;42.70;;;;;;8334640;28;20008;-43
2022/09/20 19:19:35;;;;;;;;;;;19.70;42.70;;;;;;8335338;28;20324;-44
2022/09/20 19:23:47;;;;;;;;;;;19.80;42.70;;;;;;8334492;28;20356;-44
2022/09/20 19:27:49;;;;;;;;;;;19.80;42.70;;;;;;8335297;28;19917;-44
2022/09/20 19:31:50;;;;;;;;;;;19.70;42.70;;;;;;8335080;28;19967;-43
2022/09/20 19:35:51;;;;;;;;;;;19.70;42.70;;;;;;8334128;28;20012;-43
2022/09/20 19:39:57;;;;;;;;;;;19.80;42.70;;;;;;8334702;28;20566;-43
2022/09/20 19:44:17;;;;;;;;;;;19.70;42.70;;;;;;8334410;28;19917;-43
2022/09/20 19:48:27;;;;;;;;;;;19.80;42.70;;;;;;8333707;28;19979;-44
2022/09/20 19:52:28;;;;;;;;;;;19.70;42.70;;;;;;8334467;28;19913;-44
2022/09/20 19:56:42;;;;;;;;;;;19.70;42.70;;;;;;8333804;28;20519;-43
2022/09/20 20:00:43;;;;;;;;;;;19.70;42.70;;;;;;8334531;28;19925;-43
2022/09/20 20:04:43;;;;;;;;;;;19.70;42.70;;;;;;8333151;28;20019;-42
2022/09/20 20:08:49;;;;;;;;;;;19.70;42.70;;;;;;8333116;28;20386;-43
2022/09/20 20:13:02;;;;;;;;;;;19.70;42.80;;;;;;8333752;28;19984;-43
2022/09/20 20:17:21;;;;;;;;;;;19.70;42.80;;;;;;8333608;28;19917;-44
2022/09/20 20:21:45;;;;;;;;;;;19.70;42.80;;;;;;8333119;28;19960;-43
2022/09/20 20:25:51;;;;;;;;;;;19.70;42.80;;;;;;8333297;28;20387;-43
2022/09/20 20:29:52;;;;;;;;;;;19.70;42.80;;;;;;8332594;28;19964;-44
2022/09/20 20:33:53;;;;;;;;;;;19.70;42.80;;;;;;8333060;28;19924;-43
2022/09/20 20:37:53;;;;;;;;;;;19.70;42.80;;;;;;8332634;28;19921;-43
2022/09/20 20:41:56;;;;;;;;;;;19.70;42.80;;;;;;8332318;28;19979;-43
2022/09/20 20:45:57;;;;;;;;;;;19.70;42.80;;;;;;8332667;28;20400;-42
2022/09/20 20:49:57;;;;;;;;;;;19.70;42.80;;;;;;8332111;28;19925;-44
2022/09/20 20:53:58;;;;;;;;;;;19.60;42.70;;;;;;8331748;28;19971;-44
2022/09/20 20:57:58;;;;;;;;;;;19.60;42.70;;;;;;8332051;28;19966;-43
2022/09/20 21:01:59;;;;;;;;;;;19.70;42.80;;;;;;8332217;28;20323;-44
2022/09/20 21:06:00;;;;;;;;;;;19.60;42.70;;;;;;8331262;28;19917;-43
2022/09/20 21:10:00;;;;;;;;;;;19.60;42.70;;;;;;8331886;28;20343;-43
2022/09/20 21:14:02;;;;;;;;;;;19.60;42.70;;;;;;8331528;28;19918;-43
2022/09/20 21:18:02;;;;;;;;;;;19.60;42.70;;;;;;8331056;28;19924;-43
2022/09/20 21:22:02;;;;;;;;;;;19.60;42.70;;;;;;8331897;28;19920;-43
2022/09/20 21:26:07;;;;;;;;;;;19.60;42.70;;;;;;8331129;28;19924;-43
2022/09/20 21:30:07;;;;;;;;;;;19.60;42.80;;;;;;8330614;28;19925;-44
2022/09/20 21:34:08;;;;;;;;;;;19.60;42.70;;;;;;8330976;28;19971;-43
2022/09/20 21:38:09;;;;;;;;;;;19.60;42.80;;;;;;8330765;28;19967;-43
2022/09/20 21:42:11;;;;;;;;;;;19.60;42.80;;;;;;8330590;28;19913;-43
2022/09/20 21:46:16;;;;;;;;;;;19.60;42.80;;;;;;8330776;28;20038;-43
2022/09/20 21:50:16;;;;;;;;;;;19.60;42.90;;;;;;8330450;28;19925;-43
2022/09/20 21:54:17;;;;;;;;;;;19.60;42.80;;;;;;8330030;28;19917;-43
2022/09/20 21:58:17;;;;;;;;;;;19.60;42.80;;;;;;8330408;28;19917;-43
2022/09/20 22:02:18;;;;;;;;;;;19.60;42.80;;;;;;8343269;28;19997;-43
2022/09/20 22:06:22;;;;;;;;;;;19.60;42.80;;;;;;8353349;28;19945;-43
2022/09/20 22:10:23;;;;;;;;;;;19.60;42.80;;;;;;8317639;28;19925;-43
2022/09/20 22:14:23;;;;;;;;;;;19.60;42.80;;;;;;8329753;28;19917;-43
2022/09/20 22:18:24;;;;;;;;;;;19.50;42.80;;;;;;8330072;28;19994;-43
2022/09/20 22:22:26;;;;;;;;;;;19.60;42.90;;;;;;8330343;28;20290;-43
2022/09/20 22:26:28;;;;;;;;;;;19.50;42.80;;;;;;8332382;28;20000;-43
2022/09/20 22:30:29;;;;;;;;;;;19.50;42.80;;;;;;8336503;28;20000;-43
2022/09/20 22:34:29;;;;;;;;;;;19.50;42.80;;;;;;8336454;28;20275;-43
2022/09/20 22:38:30;;;;;;;;;;;19.50;42.80;;;;;;8335904;28;19921;-43
2022/09/20 22:42:30;;;;;;;;;;;19.50;42.90;;;;;;8336741;28;19967;-43
2022/09/20 22:46:31;;;;;;;;;;;19.50;42.90;;;;;;8336364;28;19921;-44
2022/09/20 22:50:31;;;;;;;;;;;19.50;42.90;;;;;;8335697;28;19925;-43
2022/09/20 22:54:34;;;;;;;;;;;19.50;42.90;;;;;;8336100;28;19924;-42
2022/09/20 22:58:36;;;;;;;;;;;19.50;42.80;;;;;;8335803;28;19959;-42
2022/09/20 23:02:36;;;;;;;;;;;19.40;42.80;;;;;;8335583;28;20385;-42
2022/09/20 23:06:40;;;;;;;;;;;19.40;42.80;;;;;;8335675;28;19952;-42
2022/09/20 23:10:41;;;;;;;;;;;19.50;42.90;;;;;;8335437;28;19929;-42
2022/09/20 23:14:41;;;;;;;;;;;19.40;42.80;;;;;;8334854;28;19917;-42
2022/09/20 23:18:42;;;;;;;;;;;19.40;42.90;;;;;;8335186;28;20384;-42
2022/09/20 23:22:42;;;;;;;;;;;19.40;42.80;;;;;;8335389;28;19913;-42
2022/09/20 23:26:43;;;;;;;;;;;19.40;42.90;;;;;;8334528;28;19925;-42
2022/09/20 23:30:43;;;;;;;;;;;19.40;42.90;;;;;;8334693;28;20304;-44
2022/09/20 23:34:44;;;;;;;;;;;19.40;42.90;;;;;;8334549;28;19952;-43
2022/09/20 23:38:44;;;;;;;;;;;19.40;42.90;;;;;;8332749;28;19921;-42
2022/09/20 23:42:45;;;;;;;;;;;19.40;42.90;;;;;;8334840;28;19921;-43
2022/09/20 23:46:46;;;;;;;;;;;19.40;42.90;;;;;;8334537;28;19916;-42
2022/09/20 23:50:46;;;;;;;;;;;19.40;42.90;;;;;;8333670;28;20012;-42
2022/09/20 23:54:47;;;;;;;;;;;19.40;43.00;;;;;;8334276;28;19913;-42
2022/09/20 23:58:47;;;;;;;;;;;19.40;42.90;;;;;;8333778;28;20390;-43
